Aérodrome :
LOGIN :

S'inscrire | Disclaimer

   EN    FR    IT 

 










Légende :    VFR   VFR Marginal   IFR   IFR Intensif   IFR Très Intensif
Visi : 
Plafond : 
>= 8 km
>= 3000ft
5 à 8 km
1000 à 3000 ft
1500m à 5 km
500 à 1000 ft
800 à 1500m
200 à 500 ft
< 800m
< 200 ft
Symboles :   Orages  Brouillard  Fortes neiges  Fortes précipitations  Vent > 20 kt
SIGMETs :   Divers  Orages  Givrage  Turbulence  Onde Orograph.  Cendres Volcan.






- Altitude de l'aérodrome : 614 ft
- Code IATA : CRL


EBCI - Charleroi

DERNIER METAR :
  • 301550Z 30003KT 250V020 9000 -SHRA SCT004 12/11 Q1014 TEMPO 4500 SHRA

METARs EXPIRÉS :
  • 301520Z 29006KT 6000 -SHRA SCT004 SCT020 12/11 Q1014 TEMPO 4500 SHRA
  • 301450Z /////KT 2400 R24///// SHRA FEW003 SCT006 BKN020 11/11 Q1015 TEMPO 4500 SHRA
  • 301420Z 27008KT 240V330 2400 SHRA FEW003 SCT006 BKN020 12/11 Q1014 TEMPO 4500 SHRA
  • 301350Z 26010KT 230V290 5000 SHRA SCT004 BKN017 13/11 Q1014 TEMPO 4500 SHRA
  • 301320Z 26011KT 9999 -SHRA SCT015 BKN019 13/11 Q1014 TEMPO 4500 SHRA

TAF TAF EBCI
Valide du 30 à 12h jusqu'au 01 à 18h UTC


301110Z 3012/0118 30007KT 9999 SCT011 BKN017
TEMPO 3013/3019 4000 RA SHRA SCT009 BKN011
PROB30
TEMPO 0101/0104 BKN008



MET'MAP, la Météo Aéronautique d'un coup d'oeil ! - Copyright ORBIFLY Décembre 2007 - Disclaimer

ORBIFLY MET'MAP TEAM :

Programmation & Développement : Alexandra Zaïnal
Sur une idée originale de : Baudouin d'Aumeries
Soutien technique & logistique : Manuel Goepfert
Assistance : Marc-Olivier Méhu




SOURCES & CREDITS :

   NOAA